Tiempo atmosférico en la estación meteorológica de Lleida, Lleida (192 m.)



Fecha
DESCASC
Temp. máxima en grados centígrados (hora)
DESCASC
Temp. mínima en grados centígrados (hora)
DESCASC
Temp. media en grados centígrados
DESCASC
Racha de viento máxima en m/sg (hora)
DESCASC
Velocidad máxima media en intervalos de 10 minutos(hora)
DESCASC
Precipitaciones diarias en mm
DESCASC
Precipitaciones de 00:00 a 06:00 en mm
DESCASC
Precipitaciones de 06:00 a 12:00 en mm
DESCASC
Precipitaciones de 12:00 a 18:00 en mm
DESCASC
Precipitaciones de 18:00 a 24:00 en mm
DESCASC
05-04-2020 20.4 (16:40) 4.4 (07:30) 12.4 8.06 (17:30) 5 (17:30) 0 0 0 0 0
04-04-2020 20.5 (17:20) 4.6 (08:00) 12.5 9.72 (18:00) 5.56 (18:00) 0 0 0 0 0
03-04-2020 17.2 (18:00) 7.5 (07:50) 12.4 6.67 (10:00) 4.17 (10:10) 0 0 0 0 0
02-04-2020 16.7 (16:30) 8.3 (00:00) 12.5 5.83 (16:40) 2.5 (18:00) 1.6 0.2 0 0 1.4
01-04-2020 12.9 (13:00) 6.1 (00:00) 9.5 13.33 (14:00) 7.22 (13:40) 14.8 0 0 10.2 4.6
31-03-2020 7.6 (17:10) 4.6 (00:00) 6.1 5 (13:00) 2.78 (13:00) 10.4 0 0 5.4 5
30-03-2020 10.4 (16:00) 5.7 (00:00) 8 8.89 (07:40) 5.28 (06:50) 0 0 0 0 0
29-03-2020 20.2 (18:30) 5.5 (00:00) 12.9 8.33 (22:40) 4.72 (12:10) 0 0 0 0 0
28-03-2020 18.3 (17:40) 7.5 (00:00) 12.9 5.56 (17:10) 3.61 (16:50) 0 0 0 0 0
27-03-2020 14.7 (15:50) 0.3 (00:00) 7.5 6.67 (22:10) 3.61 (21:40) 0 0 0 0 0
26-03-2020 14.4 (14:40) 3.3 (00:00) 8.8 14.44 (16:10) 8.06 (16:00) 0 0 0 0 0
25-03-2020 10.5 (15:10) 6.2 (00:00) 8.3 8.61 (10:30) 4.72 (06:00) 0.8 0.2 0.6 0 0
24-03-2020 16.8 (15:20) 8.9 (00:00) 12.8 8.33 (15:50) 5 (16:00) 0.6 0 0 0 0.6
23-03-2020 17.3 (14:40) 8.7 (00:00) 13 11.11 (13:40) 6.67 (13:00) 0 0 0 0 0
22-03-2020 18.2 (14:10) 6.2 (07:10) 12.2 8.33 (15:00) 4.44 (15:10) 0 0 0 0 0
21-03-2020 18.6 (16:40) 4.3 (00:00) 11.5 5.83 (19:20) 3.33 (19:10) 0 0 0 0 0
20-03-2020 18.3 (15:00) 5 (00:00) 11.6 6.94 (16:40) 3.89 (15:50) 0 0 0 0 0
19-03-2020 18.6 (14:10) 6.2 (00:00) 12.4 7.22 (19:50) 4.72 (20:00) 0 0 0 0 0
18-03-2020 17.1 (17:00) 8.2 (00:00) 12.7 3.06 (04:30) 2.22 (04:40) 0 0 0 0 0
17-03-2020 17.3 (15:30) 11.4 (00:00) 14.3 12.5 (01:40) 7.22 (01:40) 3.4 0.2 3.2 0 0
16-03-2020 13.3 (17:40) 10.3 (00:00) 11.8 13.61 (19:50) 7.5 (19:20) 11.8 3.2 5.4 2.6 0.6
15-03-2020 20.5 (15:30) 5.1 (00:00) 12.8 10 (16:20) 6.39 (16:40) 4 0 0 0 4
14-03-2020 18.6 (17:20) 6.8 (00:00) 12.7 6.39 (11:00) 3.89 (03:30) 0 0 0 0 0
13-03-2020 19.2 (15:20) 9.5 (07:30) 14.4 7.5 (14:10) 3.06 (00:20) 0 0 0 0 0
12-03-2020 26.3 (16:50) 7 (00:00) 16.6 6.39 (22:20) 3.89 (22:30) 0 0 0 0 0
11-03-2020 23.8 (17:10) 4.3 (00:00) 14 5.83 (12:20) 3.33 (12:40) 0 0 0 0 0
10-03-2020 18.8 (16:50) 4 (00:00) 11.4 7.22 (12:30) 4.44 (12:30) 0 0 0 0 0
09-03-2020 17.1 (15:50) 8.2 (00:00) 12.7 19.17 (12:00) 11.94 (13:50) 0 0 0 0 0

Gráficas

Temp. máximas Temp. mínimas Temp. medias Precipitaciones Rachas de viento máximas Velocidades máximas media en intervalos de 10 minutos

Datos horarios

Fecha y hora oficial Temperatura (ºC) Velocidad del viento (km/h) Dirección del viento Racha (km/h) Dirección de racha Precipitación (mm) Presión (hPa) Tendencia (hPa) Humedad (%)
2020-04-07 23:00:00 11.4 4 Nordeste 8 Norte 0 1002.6 1.2 88
2020-04-07 22:00:00 13 4 Norte 9 Nordeste 0 1002.4 1 83
2020-04-07 21:00:00 14.5 6 Nordeste 13 Este 0 1001.8 0.4 78
2020-04-07 20:00:00 15.2 9 Este 19 Nordeste 0 1001.4 -0.4 72
2020-04-07 19:00:00 16 10 Nordeste 21 Nordeste 0 1001.4 -0.3 72
2020-04-07 18:00:00 14.9 6 Sudeste 18 Sur 0 1001.4 -0.7 67
2020-04-07 17:00:00 15.8 8 Sudeste 25 Nordeste 0.2 1001.8 -0.8 65
2020-04-07 16:00:00 16.7 11 Nordeste 25 Nordeste 0 1001.7 -1 69
2020-04-07 15:00:00 16.6 13 Nordeste 24 Este 0 1002.1 -0.9 71
2020-04-07 14:00:00 15.5 13 Este 23 Este 0 1002.6 -0.2 79
2020-04-07 13:00:00 14.3 8 Nordeste 15 Este 0 1002.7 0.4 85
2020-04-07 12:00:00 13.5 6 Nordeste 21 Nordeste 0 1003 1.2 86
2020-04-07 11:00:00 12 6 Nordeste 12 Nordeste 0.4 1002.8 1.4 91
2020-04-07 10:00:00 11.3 6 Nordeste 13 Nordeste 0 1002.3 1.2 85
2020-04-07 09:00:00 10.8 6 Nordeste 15 Nordeste 0 1001.8 0.8 85
2020-04-07 08:00:00 10.4 8 Nordeste 13 Nordeste 0 1001.4 0.4 84
2020-04-07 07:00:00 10.2 7 Nordeste 12 Nordeste 0 1001.1 -0.3 83
2020-04-07 06:00:00 10.2 6 Nordeste 13 Nordeste 0 1001 -0.6 83
2020-04-07 05:00:00 10.6 7 Nordeste 13 Nordeste 0 1001 -0.8 81
2020-04-07 04:00:00 10.9 7 Nordeste 11 Nordeste 0 1001.4 -0.1 82
2020-04-07 03:00:00 11 6 Nordeste 12 Nordeste 0 1001.6 0.3 82
2020-04-07 02:00:00 11.1 7 Nordeste 12 Nordeste 0 1001.8 0.7 80
2020-04-07 01:00:00 11.4 7 Nordeste 11 Norte 0 1001.5 0.8 77
2020-04-07 00:00:00 12 6 Norte 11 Nordeste 0 1001.3 1.2 75
2020-04-06 23:00:00 13.4 6 Nordeste 12 Nordeste 0 1001.1 1.7 74
2020-04-06 22:00:00 13.9 6 Sur 16 Sur 0 1000.7 1.8 73
2020-04-06 21:00:00 14.3 7 Sur 20 Sudoeste 0 1000.1 1.6 69
2020-04-06 20:00:00 15.2 9 Sur 21 Sur 0 999.4 1.3 65
2020-04-06 19:00:00 17.3 10 Sur 22 Sudoeste 0 998.9 0.5 61
2020-04-06 18:00:00 19.2 10 Sur 22 Sur 0 998.5 -0.4 58
2020-04-06 17:00:00 20.5 6 Este 20 Nordeste 0 998.1 -1 50
2020-04-06 16:00:00 20.1 7 Este 20 Este 0 998.4 -0.9 51
2020-04-06 15:00:00 20 6 Sudeste 21 Este 0 998.9 -0.6 52
2020-04-06 14:00:00 18.2 8 Norte 19 Este 0 999.1 -0.3 54
2020-04-06 13:00:00 16.4 7 Nordeste 17 Nordeste 0 999.3 0.5 59
2020-04-06 12:00:00 14.8 9 Nordeste 17 Nordeste 0 999.5 1.1 65
2020-04-06 11:00:00 12.7 8 Nordeste 17 Este 0 999.4 1.6 71
2020-04-06 10:00:00 11.2 10 Nordeste 17 Nordeste 0 998.8 1.6 74
2020-04-06 09:00:00 9.5 9 Nordeste 15 Nordeste 0 998.4 1.5 76
2020-04-06 08:00:00 8.2 8 Nordeste 14 Nordeste 0 997.8 0.8 79
2020-04-06 07:00:00 7.8 8 Nordeste 14 Nordeste 0 997.2 0.1 77
2020-04-06 06:00:00 8.1 8 Nordeste 14 Nordeste 0 996.9 -0.1 73
2020-04-06 05:00:00 8.1 8 Nordeste 17 Nordeste 0 997 -0.1 75
2020-04-06 04:00:00 8.1 8 Nordeste 15 Nordeste 0 997.1 0.2 76
2020-04-06 03:00:00 8.8 9 Nordeste 16 Nordeste 0 997 0.3 75
2020-04-06 02:00:00 8.9 7 Nordeste 12 Nordeste 0 997.1 0.7 78
2020-04-06 01:00:00 9.3 8 Nordeste 13 Nordeste 0 996.9 0.9 79
2020-04-06 00:00:00 10.1 7 Nordeste 12 Nordeste 0 996.7 1.7 78
2020-04-05 23:00:00 11.7 7 Nordeste 11 Nordeste 0 996.4 2 71
2020-04-05 22:00:00 12.9 6 Sur 17 Sur 0 996 1.6 69
2020-04-05 21:00:00 14.2 7 Sur 21 Sur 0 995 0.6 65
2020-04-05 20:00:00 15.7 9 Sur 17 Sur 0 994.4 -0.3 59
2020-04-05 19:00:00 16.5 13 Sur 23 Sur 0 994.4 -0.6 55
2020-04-05 18:00:00 17.7 14 Sur 29 Sudoeste 0 994.4 -1.3 53
2020-04-05 17:00:00 19.8 11 Sudoeste 21 Sur 0 994.7 -1.4 45
2020-04-05 16:00:00 19.8 8 Sur 15 Sudoeste 0 995 -1.9 44
2020-04-05 15:00:00 19.4 6 Sur 23 Este 0 995.7 -1.6 46
2020-04-05 14:00:00 18 6 Nordeste 23 Sudeste 0 996.1 -1.6 51
2020-04-05 13:00:00 16.6 6 Nordeste 17 Este 0 996.9 -0.7 51
2020-04-05 12:00:00 15.4 10 Nordeste 19 Nordeste 0 997.3 -0.4 56
2020-04-05 11:00:00 12.8 10 Este 21 Este 0 997.7 0.7 64
2020-04-05 10:00:00 9.3 13 Nordeste 20 Nordeste 0 997.6 1.1 78
2020-04-05 09:00:00 6.5 11 Nordeste 18 Nordeste 0 997.7 1.5 82
2020-04-05 08:00:00 4.7 8 Nordeste 17 Nordeste 0 997 0.6 90
2020-04-05 07:00:00 4.7 11 Norte 18 Norte 0 996.5 -0.3 89
2020-04-05 06:00:00 4.9 9 Nordeste 16 Nordeste 0 996.2 -1 89
2020-04-05 05:00:00 5.2 9 Nordeste 17 Nordeste 0 996.4 -1 88
2020-04-05 04:00:00 6 9 Nordeste 15 Nordeste 0 996.8 -0.6 86
2020-04-05 03:00:00 6.6 8 Norte 15 Nordeste 0 997.2 0.1 85
2020-04-05 02:00:00 7.5 7 Nordeste 13 Norte 0 997.4 0.6 82
2020-04-05 01:00:00 8.3 8 Nordeste 13 Nordeste 0 997.4 1.1 77
2020-04-05 00:00:00 9.6 3 Norte 9 Norte 0 997.1 1.8 69
2020-04-04 23:00:00 11.4 6 Nordeste 13 Sudeste 0 996.8 2 62
2020-04-04 22:00:00 12.2 5 Sudeste 18 Sudeste 0 996.3 2.1 60
2020-04-04 21:00:00 13.6 8 Sur 28 Sur 0 995.3 1.6 55
2020-04-04 20:00:00 16 10 Sur 31 Sur 0 994.8 0.9 49
2020-04-04 19:00:00 17.9 16 Sur 33 Sur 0 994.2 -0.1 43
2020-04-04 18:00:00 19.7 20 Sur 35 Sur 0 993.7 -1.2 41
2020-04-04 17:00:00 19.9 7 Sudoeste 17 Sudoeste 0 993.9 -1.5 47
2020-04-04 16:00:00 19.4 6 Sur 19 Sudeste 0 994.3 -1.6 42
2020-04-04 15:00:00 19.9 6 Sudoeste 15 Sur 0 994.9 -1.4 49
2020-04-04 14:00:00 18.5 6 Este 18 Sur 0 995.4 -1.1 51
2020-04-04 13:00:00 17.4 6 Sur 15 Sur 0 995.9 -0.2 48
2020-04-04 12:00:00 15.4 9 Este 18 Este 0 996.3 0.4 68
2020-04-04 11:00:00 12.4 9 Nordeste 19 Nordeste 0 996.5 1.2 75
2020-04-04 10:00:00 9.5 9 Nordeste 15 Nordeste 0 996.1 1.2 82
2020-04-04 09:00:00 7 5 Nordeste 10 Nordeste 0 995.9 1.3 89
2020-04-04 08:00:00 4.7 4 Nordeste 12 Nordeste 0 995.3 0.4 94
2020-04-04 07:00:00 4.8 8 Norte 13 Nordeste 0 994.9 -0.1 92
2020-04-04 06:00:00 5.4 9 Nordeste 14 Norte 0 994.6 -0.3 90
2020-04-04 05:00:00 6.2 8 Nordeste 13 Nordeste 0 994.9 0 92
2020-04-04 04:00:00 6.7 6 Nordeste 12 Nordeste 0 995 0.4 90
2020-04-04 03:00:00 6.9 9 Nordeste 14 Nordeste 0 994.9 0.8 91
2020-04-04 02:00:00 7.2 8 Nordeste 12 Nordeste 0 994.9 1.2 90
2020-04-04 01:00:00 7.5 8 Nordeste 10 Nordeste 0 994.6 1.5 88
2020-04-04 00:00:00 8.3 2 Sur 6 Sur 0 994.1 1.6 86
2020-04-03 23:00:00 9.6 3 Sudoeste 8 Sur 0 993.7 1.5 80
2020-04-03 22:00:00 10.6 2 Sudoeste 6 Sudoeste 0 993.1 1.2 76
2020-04-03 21:00:00 12.8 4 Sudoeste 11 Sudoeste 0 992.5 0.7 66
2020-04-03 20:00:00 15.1 6 Sudoeste 19 Sudoeste 0 992.2 0.2 58
2020-04-03 19:00:00 16.6 11 Sudoeste 22 Sudoeste 0 991.9 -0.5 53
2020-04-03 18:00:00 17 10 Sudoeste 20 Sudoeste 0 991.8 -1.3 54
2020-04-03 17:00:00 16.9 10 Sudoeste 21 Oeste 0 992 -1.7 58
2020-04-03 16:00:00 16.1 10 Oeste 21 Sudoeste 0 992.4 -1.7 58
2020-04-03 15:00:00 14.8 9 Oeste 18 Oeste 0 993.1 -1.4 60
2020-04-03 14:00:00 14.2 6 Sudoeste 18 Oeste 0 993.7 -0.5 66
2020-04-03 13:00:00 12 10 Oeste 18 Sudoeste 0 994.1 0.6 66
2020-04-03 12:00:00 10.3 7 Oeste 20 Oeste 0 994.5 1.5 74
2020-04-03 11:00:00 8.7 11 Sudoeste 21 Sudoeste 0 994.2 2 77
2020-04-03 10:00:00 7.9 15 Sudoeste 24 Sudoeste 0 993.5 2 78
2020-04-03 09:00:00 7.7 10 Sudoeste 19 Sudoeste 0 993 1.9 82
2020-04-03 08:00:00 7.5 13 Sudoeste 21 Sudoeste 0 992.2 1.7 82
2020-04-03 07:00:00 7.7 13 Sudoeste 20 Sudoeste 0 991.5 1.1 82
2020-04-03 06:00:00 8.4 12 Sudoeste 22 Sudoeste 0 991.1 0.7 80
2020-04-03 05:00:00 9.1 14 Sudoeste 23 Sudoeste 0 990.5 -0.1 87
2020-04-03 04:00:00 10.2 8 Sudoeste 14 Sudoeste 0 990.4 0 94
2020-04-03 03:00:00 10.2 7 Oeste 13 Sudoeste 0 990.4 0.2 93
2020-04-03 02:00:00 10.4 6 Oeste 10 Oeste 0 990.6 -- 94
2020-04-03 01:00:00 10.5 4 Sudoeste 12 Sudoeste 0 990.4 0.9 92
2020-04-03 00:00:00 11.4 6 Sudoeste 12 Sudoeste 0 990.2 1.7 93
2020-04-02 23:00:00 11.8 4 Sur 10 Sudoeste 0.8 -- -- 91
2020-04-02 22:00:00 12.5 5 Sur 10 Sudeste 0.2 989.5 1.6 87
2020-04-02 21:00:00 12.9 4 Sudeste 6 Sudeste 0 988.5 0.9 85
2020-04-02 20:00:00 13.3 3 Este 10 Norte 0.4 988.1 0.5 84
2020-04-02 19:00:00 15.2 3 Sur 16 Oeste 0 987.9 -0.1 66
2020-04-02 18:00:00 15.8 9 Noroeste 17 Noroeste 0 987.6 -0.7 65
2020-04-02 17:00:00 15.7 8 Oeste 21 Oeste 0 987.6 -1.2 63
2020-04-02 16:00:00 15.8 8 Oeste 17 Sudoeste 0 988 -1.1 67
2020-04-02 15:00:00 15.2 5 Sudoeste 12 Sudoeste 0 988.3 -0.9 71
2020-04-02 14:00:00 13.1 4 Sur 11 Noroeste 0 988.8 -0.2 75
2020-04-02 13:00:00 12.9 5 Norte 14 Noroeste 0 989.1 0.5 75
2020-04-02 12:00:00 12.5 4 Noroeste 12 Oeste 0 989.2 0.9 79
2020-04-02 11:00:00 12.3 4 Sur 9 Sudoeste 0 989 1 77
2020-04-02 10:00:00 11.3 3 Nordeste 7 Noroeste 0 988.6 0.7 81
2020-04-02 09:00:00 8.8 3 Oeste 5 Noroeste 0 988.3 0.4 96
2020-04-02 08:00:00 8.3 2 Sudoeste 5 Sudoeste 0 988 -0.1 95
2020-04-02 07:00:00 8.4 3 Sur 5 Sudoeste 0 987.9 -0.8 94
2020-04-02 06:00:00 8.6 0 Calma 5 Norte 0 987.9 -1.2 92
2020-04-02 05:00:00 8.6 2 Norte 8 Nordeste 0 988.1 -1.2 92
2020-04-02 04:00:00 8.6 3 Nordeste 9 Nordeste 0.2 988.7 -1 90
2020-04-02 03:00:00 8.7 5 Nordeste 15 Nordeste 0 989.1 -0.9 90
2020-04-02 02:00:00 8.6 7 Nordeste 13 Nordeste 0 989.3 -0.6 92
2020-04-02 01:00:00 8.7 7 Nordeste 13 Nordeste 0 989.7 0.1 90
2020-04-02 00:00:00 8.6 7 Nordeste 12 Este 0 990 0.7 91
2020-04-01 23:00:00 8.9 5 Nordeste 17 Nordeste 0 989.9 1.3 90
2020-04-01 22:00:00 9.1 8 Nordeste 13 Nordeste 0 989.6 0.3 91
2020-04-01 21:00:00 9.2 5 Nordeste 29 Nordeste 0 989.3 -- 92
2020-04-01 20:00:00 9.6 13 Nordeste 24 Nordeste 1.4 988.6 -0.2 93
2020-04-01 19:00:00 9.8 8 Norte 12 Norte 3.2 989.3 0.3 94
2020-04-01 18:00:00 10.3 5 Norte 12 Sudeste 7.2 -- -- 91
2020-04-01 17:00:00 11 9 Este 18 Este 3 988.8 -0.9 87
2020-04-01 16:00:00 11.7 13 Este 35 Este 0 989 -0.9 81
2020-04-01 15:00:00 12.2 15 Nordeste 35 Nordeste 0 989.4 -1 74
2020-04-01 14:00:00 12.2 26 Nordeste 48 Este 0 989.7 -0.6 70
2020-04-01 13:00:00 12.8 21 Este 43 Nordeste 0 989.9 -0.2 69
2020-04-01 12:00:00 12.2 24 Nordeste 43 Este 0 990.4 0.5 72
2020-04-01 11:00:00 11.9 19 Nordeste 37 Nordeste 0 990.3 0.5 77
2020-04-01 10:00:00 11.5 22 Nordeste 40 Nordeste 0 990.1 0.4 79
2020-04-01 09:00:00 11 16 Nordeste 32 Nordeste 0 989.9 0 82
2020-04-01 08:00:00 10.3 12 Nordeste 28 Nordeste 0 989.8 -0.5 86
2020-04-01 07:00:00 10.1 12 Nordeste 27 Nordeste 0 989.7 -0.8 86
2020-04-01 06:00:00 10.1 13 Nordeste 27 Nordeste 0 989.9 -1 85
2020-04-01 05:00:00 9.6 10 Nordeste 19 Nordeste 0 990.3 -1 86
2020-04-01 04:00:00 9.2 11 Nordeste 17 Nordeste 0 990.5 -1.1 89
2020-04-01 03:00:00 7.7 8 Nordeste 13 Nordeste 0 990.9 -0.7 97
2020-04-01 02:00:00 7 4 Nordeste 9 Nordeste 0 991.3 -0.2 97
2020-04-01 01:00:00 6.3 3 Oeste 8 Sudoeste 0 991.6 0.1 97
2020-04-01 00:00:00 6.1 3 Oeste 12 Sudoeste 0 991.6 0.8 96
2020-03-31 23:00:00 6.1 7 Sudoeste 14 Sudoeste 0 991.5 1.1 97
2020-03-31 22:00:00 6.1 8 Sudoeste 12 Sudoeste 0.2 991.5 1.4 97
2020-03-31 21:00:00 6.3 4 Sudoeste 12 Sudoeste 1 990.8 1.1 97
2020-03-31 20:00:00 6.6 7 Sudoeste 15 Sudoeste 2 990.4 1 96
2020-03-31 19:00:00 7.5 7 Sudoeste 12 Sudoeste 1.8 990.1 0.6 96
2020-03-31 18:00:00 7.5 6 Sudoeste 11 Sur 1.2 989.7 -0.1 96
2020-03-31 17:00:00 7.5 6 Sur 10 Sur 0.8 989.4 -0.9 95
2020-03-31 16:00:00 7.2 7 Sur 10 Sur 0.8 989.5 -0.7 94
2020-03-31 15:00:00 7 4 Sur 15 Sudoeste 1.8 989.8 -0.4 94
2020-03-31 14:00:00 6.6 8 Sudoeste 16 Sudoeste 0.8 990.3 0.2 91
2020-03-31 13:00:00 6.5 10 Sudoeste 18 Sudoeste 0 990.2 0.1 88
2020-03-31 12:00:00 6.5 8 Sudoeste 13 Sudoeste 0 990.2 0.3 89
2020-03-31 11:00:00 6.3 6 Sudoeste 14 Sudoeste 0 990.1 0 90
2020-03-31 10:00:00 5.3 0 Calma 6 Nordeste 0 990.1 0.2 89
2020-03-31 09:00:00 4.9 5 Norte 9 Norte 0 989.9 0.2 92
2020-03-31 08:00:00 4.6 4 Noroeste 9 Noroeste 0 990.1 -0.1 93
2020-03-31 07:00:00 4.8 7 Noroeste 13 Noroeste 0 989.9 -0.5 92
2020-03-31 06:00:00 5 8 Noroeste 14 Noroeste 0 989.7 -1.3 87
2020-03-31 05:00:00 5.4 8 Noroeste 11 Noroeste 0 990.2 -1 87
2020-03-31 04:00:00 5.8 4 Oeste 5 Oeste 0 990.4 -1.4 79
2020-03-31 03:00:00 5.7 3 Nordeste 7 Nordeste 0 991 -1.2 74
2020-03-31 02:00:00 5.6 4 Nordeste 7 Nordeste 0 991.2 -1.1 77
2020-03-31 01:00:00 5.7 6 Nordeste 11 Nordeste 0 991.8 -0.5 77
2020-03-31 00:00:00 5.7 6 Nordeste 14 Nordeste 0 992.2 0.3 78
2020-03-30 23:00:00 5.8 8 Norte 13 Nordeste 0 992.3 0.8 75
2020-03-30 22:00:00 6.1 5 Nordeste 10 Este 0 992.3 1.2 71
2020-03-30 21:00:00 6.4 9 Este 14 Este 0 991.9 0.8 64
2020-03-30 20:00:00 6.4 10 Sudeste 17 Sudeste 0 991.5 0 65
2020-03-30 19:00:00 7.1 12 Sudeste 23 Sudeste 0 991.1 -0.6 61
2020-03-30 18:00:00 9 6 Sur 19 Sudoeste 0 991.1 -1.1 42
2020-03-30 17:00:00 9.2 10 Sudoeste 22 Sudoeste 0 991.5 -0.9 39
2020-03-30 16:00:00 10.3 12 Sudoeste 22 Oeste 0 991.7 -0.9 39
2020-03-30 15:00:00 9.4 11 Oeste 23 Oeste 0 992.2 -0.5 42
2020-03-30 14:00:00 8.9 15 Oeste 27 Sudoeste 0 992.4 -0.2 46
2020-03-30 13:00:00 8.7 17 Oeste 32 Oeste 0 992.6 0.6 43
2020-03-30 12:00:00 8 15 Oeste 31 Oeste 0 992.7 1.4 51
2020-03-30 11:00:00 7.3 13 Sudoeste 30 Sudoeste 0 992.6 1.9 61
2020-03-30 10:00:00 6.5 12 Sudoeste 27 Oeste 0 992 1.8 67
2020-03-30 09:00:00 6 12 Sudoeste 28 Sudoeste 0 991.3 1.3 67
2020-03-30 08:00:00 6 9 Sudoeste 32 Sudoeste 0 990.7 0.8 71
2020-03-30 07:00:00 6.5 14 Sudoeste 30 Sudoeste 0 990.2 0.1 71
2020-03-30 06:00:00 6.9 14 Sudoeste 22 Sudoeste 0 990 -0.3 76
2020-03-30 05:00:00 7.8 12 Sudoeste 24 Sudoeste 0 989.9 -0.6 76
2020-03-30 04:00:00 8.8 15 Sudoeste 24 Sudoeste 0 990.1 -0.4 75
2020-03-30 03:00:00 8.5 15 Sudoeste 22 Sudoeste 0 990.3 -0.2 77
2020-03-30 02:00:00 8.5 12 Sur 21 Sudoeste 0 990.5 0.4 74
2020-03-30 01:00:00 9 11 Sudoeste 22 Sudoeste 0 990.5 0.6 72
2020-03-30 00:00:00 9.9 14 Sudoeste 23 Sudoeste 0 990.5 1.3 70
2020-03-29 23:00:00 11.4 16 Sudoeste 30 Oeste 0 990.1 1.4 62
2020-03-29 22:00:00 12.4 12 Oeste 20 Oeste 0 989.9 1.4 59
2020-03-29 21:00:00 14.8 13 Oeste 27 Oeste 0 989.2 0.5 50
2020-03-29 20:00:00 17.8 13 Oeste 23 Oeste 0 988.7 -0.6 41
2020-03-29 19:00:00 20 10 Oeste 21 Oeste 0 988.5 -1.5 35
2020-03-29 18:00:00 20 13 Oeste 26 Oeste 0 988.7 -2.2 36
2020-03-29 17:00:00 19.5 17 Oeste 24 Oeste 0 989.3 -2.4 37
2020-03-29 16:00:00 19 12 Sudoeste 27 Oeste 0 990 -2.5 41
2020-03-29 15:00:00 17.8 15 Sudoeste 24 Sudoeste 0 990.9 -2.2 44
2020-03-29 14:00:00 16.5 16 Sudoeste 27 Oeste 0 991.7 -1.8 49
2020-03-29 13:00:00 15.1 16 Oeste 26 Oeste 0 992.5 -1.1 52
2020-03-29 12:00:00 13.5 13 Oeste 23 Sudoeste 0 993.1 -0.4 57
2020-03-29 11:00:00 11.6 12 Oeste 22 Sudoeste 0 993.5 0.3 64
2020-03-29 10:00:00 9.4 11 Sudoeste 17 Sudoeste 0 993.6 0.8 75
2020-03-29 09:00:00 6.9 4 Sudoeste 8 Sudoeste 0 993.5 0.7 85
2020-03-29 08:00:00 5.5 6 Oeste 10 Oeste 0 993.2 0.2 85
2020-03-29 07:00:00 5.8 3 Sudoeste 9 Sudoeste 0 992.8 -0.4 88
2020-03-29 06:00:00 6.7 3 Norte 6 Este 0 992.8 -0.9 85
2020-03-29 05:00:00 8 4 Nordeste 7 Sur 0 993 -0.9 79
2020-03-29 03:00:00 9.5 5 Sur 9 Sudoeste 0 993.7 -0.3 74
2020-03-29 01:00:00 9.3 4 Oeste 6 Oeste 0 993.9 -0.2 76
2020-03-29 00:00:00 9.3 3 Sudoeste 6 Oeste 0 994.1 0.3 75
2020-03-28 23:00:00 10.5 4 Oeste 10 Oeste 0 994 0.8 70
2020-03-28 22:00:00 11.6 3 Sudoeste 8 Sudoeste 0 994.1 1.2 68
2020-03-28 21:00:00 12.6 4 Sudoeste 7 Oeste 0 993.8 1.2 63
2020-03-28 20:00:00 13.9 3 Oeste 6 Oeste 0 993.2 0.6 55
2020-03-28 19:00:00 16.5 4 Sudoeste 14 Oeste 0 992.9 0 45
2020-03-28 18:00:00 18 9 Sudoeste 20 Sudoeste 0 992.6 -0.8 41
2020-03-28 17:00:00 17.8 9 Sudoeste 18 Sudoeste 0 992.6 -1.4 40
2020-03-28 16:00:00 17.7 8 Sudoeste 18 Sudoeste 0 992.9 -1.6 39
2020-03-28 15:00:00 17.4 9 Oeste 15 Noroeste 0 993.4 -1.5 41
2020-03-28 14:00:00 17.4 8 Sudoeste 19 Sudoeste 0 994 -1.1 40
2020-03-28 13:00:00 15.6 9 Oeste 20 Oeste 0 994.5 -0.5 52
2020-03-28 12:00:00 13.6 6 Sudoeste 14 Sudoeste 0 994.9 0.5 62
2020-03-28 11:00:00 12.5 7 Sudoeste 12 Sudoeste 0 995.1 1.1 69
2020-03-28 10:00:00 10.8 5 Sudoeste 12 Sudoeste 0 995 1.3 76
2020-03-28 09:00:00 9.6 6 Sur 9 Sur 0 994.4 1.1 81
2020-03-28 08:00:00 8 3 Sur 5 Sudoeste 0 994 1.1 85
2020-03-28 07:00:00 7.6 4 Sudoeste 6 Sudoeste 0 993.7 0.7 84
2020-03-28 06:00:00 7.6 2 Sudoeste 6 Sudoeste 0 993.3 0.1 82
2020-03-28 05:00:00 7.7 3 Oeste 4 Oeste 0 992.9 -0.3 82
2020-03-28 04:00:00 8.7 3 Nordeste 6 Norte 0 993 -0.1 75
2020-03-28 03:00:00 9 5 Norte 10 Nordeste 0 993.2 0.2 74
2020-03-28 02:00:00 8.9 6 Norte 12 Nordeste 0 993.2 0.5 76
2020-03-28 01:00:00 8.8 6 Nordeste 13 Nordeste 0 993.1 1 78
2020-03-28 00:00:00 9.1 6 Nordeste 13 Norte 0 993 1.4 77
2020-03-27 23:00:00 10.3 6 Nordeste 24 Este 0 992.7 1.8 66
2020-03-27 22:00:00 11.3 12 Este 23 Sudeste 0 992.1 1.8 58
2020-03-27 21:00:00 11.8 8 Este 15 Este 0 991.6 1.9 54
2020-03-27 20:00:00 12.3 4 Nordeste 8 Este 0 990.9 1.3 52
2020-03-27 19:00:00 13.2 4 Nordeste 7 Oeste 0 990.3 0.7 47
2020-03-27 18:00:00 13.8 5 Oeste 14 Oeste 0 989.7 -0.3 44
2020-03-27 17:00:00 14.4 9 Sudoeste 19 Sudoeste 0 989.6 -0.8 43
2020-03-27 16:00:00 14.3 10 Sudoeste 20 Oeste 0 989.6 -1.2 42
2020-03-27 15:00:00 14.3 11 Oeste 20 Oeste 0 990 -1.4 41
2020-03-27 14:00:00 13 13 Oeste 23 Sudoeste 0 990.4 -1.4 48
2020-03-27 13:00:00 12.9 10 Sudoeste 23 Noroeste 0 990.8 -1 54
2020-03-27 12:00:00 10.9 12 Noroeste 21 Oeste 0 991.4 -0.2 58
2020-03-27 11:00:00 8.7 7 Sudoeste 15 Sudoeste 0 991.8 0.4 74
2020-03-27 10:00:00 6.5 6 Sudoeste 12 Sur 0 991.8 1 79
2020-03-27 09:00:00 4.5 2 Sudeste 8 Nordeste 0 991.6 1.3 84
2020-03-27 08:00:00 2.1 3 Norte 8 Nordeste 0 991.4 1.5 90
2020-03-27 07:00:00 0.3 4 Nordeste 7 Norte 0 990.8 1 94
2020-03-27 06:00:00 0.8 4 Norte 6 Norte 0 990.3 0.4 94
2020-03-27 05:00:00 0.9 4 Sudoeste 5 Sudoeste 0 989.9 -0.1 91
2020-03-27 04:00:00 1.5 2 Este 8 Norte 0 989.8 -0.1 90
2020-03-27 03:00:00 2.4 6 Norte 9 Norte 0 989.9 0 89
2020-03-27 02:00:00 2.6 5 Norte 8 Norte 0 990 0.5 90
2020-03-27 01:00:00 2.8 2 Oeste 5 Este 0 989.9 0.6 87
2020-03-27 00:00:00 3.3 2 Sudeste 5 Sur 0 989.9 0.8 88
2020-03-26 23:00:00 4.5 3 Norte 13 Norte 0 989.5 1.1 82
2020-03-26 22:00:00 5.3 5 Norte 11 Noroeste 0 989.3 1.5 78
2020-03-26 21:00:00 6 4 Sur 24 Este 0 989.1 2.2 76
2020-03-26 20:00:00 6.6 12 Este 33 Este 0 988.4 2.6 73
2020-03-26 19:00:00 8 18 Este 35 Este 0 987.8 2.8 66
2020-03-26 18:00:00 8.7 21 Este 44 Este 0 986.9 2.2 65
2020-03-26 17:00:00 9.1 26 Este 52 Este 0 985.8 1.9 61
2020-03-26 16:00:00 9.1 29 Este 51 Este 0 985 0.8 66
2020-03-26 15:00:00 10.2 23 Nordeste 45 Nordeste 0 984.7 0.2 58
2020-03-26 14:00:00 13.3 6 Nordeste 19 Sudeste 0 983.9 -0.7 50
2020-03-26 13:00:00 12.6 11 Sudeste 19 Sudeste 0 984.2 -0.3 58
2020-03-26 12:00:00 11.7 8 Este 15 Sur 0 984.5 0.1 62
2020-03-26 11:00:00 10.3 6 Sur 14 Sur 0 984.6 0 63
2020-03-26 10:00:00 9 6 Sudoeste 13 Oeste 0 984.5 -0.6 70
2020-03-26 09:00:00 7.5 5 Oeste 14 Oeste 0 984.4 -0.7 79
2020-03-26 08:00:00 5.9 4 Sudoeste 12 Sudoeste 0 984.6 -1.3 91
2020-03-26 07:00:00 4.8 5 Sudoeste 11 Oeste 0 985.1 -1.6 92
2020-03-26 06:00:00 6.1 6 Oeste 14 Oeste 0 985.1 -2.3 88
2020-03-26 05:00:00 7.1 4 Sudoeste 7 Sudoeste 0 985.9 -2.2 87
2020-03-26 04:00:00 7.4 4 Sudoeste 6 Sudoeste 0 986.7 -2 84
2020-03-26 03:00:00 7.6 4 Sudoeste 6 Oeste 0 987.4 -2.2 82
2020-03-26 02:00:00 7.8 4 Noroeste 5 Sudoeste 0 988.1 -2.1 79
2020-03-26 01:00:00 7.8 2 Sudoeste 8 Oeste 0 988.7 -1.7 78
2020-03-26 00:00:00 8.1 4 Oeste 8 Sudoeste 0 989.6 -1 77
2020-03-25 23:00:00 8.4 4 Sudoeste 9 Sur 0 990.2 -0.5 76
2020-03-25 22:00:00 8.6 6 Sudeste 9 Sudeste 0 990.4 -0.6 73
2020-03-25 21:00:00 8.9 3 Norte 8 Nordeste 0 990.6 -0.5 68
2020-03-25 20:00:00 9.2 5 Nordeste 6 Nordeste 0 990.7 -0.7 67
2020-03-25 19:00:00 9.8 0 Calma 6 Este 0 991 -1 62
2020-03-25 18:00:00 10.1 3 Sudeste 5 Sudoeste 0 991.1 -1.7 60
2020-03-25 17:00:00 10.1 6 Este 12 Este 0 991.4 -2.2 59
2020-03-25 16:00:00 10.4 4 Este 15 Nordeste 0 992 -2.4 61
2020-03-25 15:00:00 10 8 Nordeste 19 Este 0 992.8 -1.9 62
2020-03-25 14:00:00 9 9 Nordeste 19 Este 0 993.6 -1.3 66
2020-03-25 13:00:00 7.7 14 Este 28 Nordeste 0 994.4 -0.5 71
2020-03-25 12:00:00 7.1 13 Nordeste 30 Este 0 994.7 -0.2 73
2020-03-25 11:00:00 6.6 13 Nordeste 31 Nordeste 0 994.9 0.1 73
2020-03-25 10:00:00 6.8 9 Nordeste 18 Este 0 994.9 0.6 84
2020-03-25 09:00:00 6.6 9 Este 19 Sudeste 0.6 994.9 0.6 84
2020-03-25 08:00:00 6.3 6 Este 23 Este 0 994.8 0.7 81
2020-03-25 07:00:00 6.5 12 Este 26 Este 0 994.3 0.3 80
2020-03-25 06:00:00 6.9 17 Este 27 Este 0 994.3 0.1 75
2020-03-25 05:00:00 7.8 6 Nordeste 21 Este 0.2 994.1 -0.7 73
2020-03-25 04:00:00 8 13 Este 20 Este 0 994 -1.1 80
2020-03-25 03:00:00 8.2 9 Este 17 Nordeste 0 994.2 -1.1 85
2020-03-25 02:00:00 8.2 8 Nordeste 15 Nordeste 0 994.8 -0.8 86
2020-03-25 01:00:00 8.4 8 Nordeste 13 Nordeste 0 995.1 -0.2 86
2020-03-25 00:00:00 8.9 6 Nordeste 18 Este 0 995.3 0.3 86
2020-03-24 23:00:00 9.2 11 Este 25 Nordeste 0 995.6 1 83
2020-03-24 22:00:00 10.1 10 Este 18 Este 0.2 995.3 1 82
2020-03-24 21:00:00 10.6 5 Norte 9 Norte 0.2 995 1.5 81
2020-03-24 20:00:00 10.8 3 Este 14 Sudeste 0.2 994.6 1.4 79
2020-03-24 19:00:00 11.2 8 Sudeste 22 Sudeste 0 994.3 0.9 78
2020-03-24 18:00:00 12.9 12 Sur 26 Sudoeste 0 993.5 -0.3 62
2020-03-24 17:00:00 13.9 15 Sudoeste 30 Sur 0 993.2 -1.3 61
2020-03-24 16:00:00 14.7 18 Sudoeste 30 Sudoeste 0 993.4 -1.6 58
2020-03-24 15:00:00 16.1 17 Sur 27 Sudoeste 0 993.8 -1.7 52
2020-03-24 14:00:00 15.8 7 Oeste 15 Oeste 0 994.5 -1.6 53
2020-03-24 13:00:00 15.6 5 Sudoeste 17 Este 0 995 -1.5 54
2020-03-24 12:00:00 15.7 8 Nordeste 21 Nordeste 0 995.5 -0.9 58
2020-03-24 11:00:00 14.6 10 Este 21 Nordeste 0 996.1 -0.5 63
2020-03-24 10:00:00 13.2 14 Este 22 Nordeste 0 996.5 0.2 65
2020-03-24 09:00:00 11.8 12 Este 21 Nordeste 0 996.4 0.4 75
2020-03-24 08:00:00 10.3 12 Este 18 Nordeste 0 996.6 0.6 81
2020-03-24 07:00:00 9.9 8 Nordeste 16 Este 0 996.3 0.3 83
2020-03-24 06:00:00 9.4 9 Nordeste 15 Este 0 996 -0.1 88
2020-03-24 05:00:00 8.9 7 Nordeste 15 Este 0 996 -0.5 88
2020-03-24 04:00:00 9.7 10 Nordeste 17 Este 0 996 -0.7 85
2020-03-24 03:00:00 10.3 10 Nordeste 17 Este 0 996.1 -0.5 84
2020-03-24 02:00:00 10.2 6 Nordeste 12 Este 0 996.5 -0.1 85
2020-03-24 01:00:00 10.2 8 Nordeste 13 Nordeste 0 996.7 0.5 84
2020-03-24 00:00:00 9.9 6 Nordeste 11 Nordeste 0 996.6 0.9 84
2020-03-23 23:00:00 10.1 6 Nordeste 13 Nordeste 0 996.6 1.2 86
2020-03-23 22:00:00 11.4 6 Nordeste 13 Este 0 996.2 1.4 81
2020-03-23 21:00:00 12.8 10 Nordeste 24 Este 0 995.7 1.4 74
2020-03-23 20:00:00 13.5 6 Nordeste 19 Nordeste 0 995.4 1.5 77
2020-03-23 19:00:00 15.3 8 Este 19 Sudeste 0 994.8 0.9 67
2020-03-23 18:00:00 15.9 9 Sudeste 20 Sudeste 0 994.3 0.4 65
2020-03-23 17:00:00 16 7 Sudeste 23 Sudeste 0 993.9 -0.3 66
2020-03-23 16:00:00 16.3 16 Sudeste 32 Este 0 993.9 -0.9 61
2020-03-23 15:00:00 16.3 19 Este 37 Este 0 993.9 -0.9 60
2020-03-23 14:00:00 16.6 21 Nordeste 40 Nordeste 0 994.2 -0.6 62
2020-03-23 13:00:00 15.2 24 Nordeste 37 Nordeste 0 994.8 0 69
2020-03-23 12:00:00 15.4 18 Nordeste 33 Este 0 994.8 0.6 66
2020-03-23 11:00:00 15.4 15 Nordeste 28 Nordeste 0 994.8 0.9 68
2020-03-23 10:00:00 13.5 13 Este 23 Nordeste 0 994.8 1.5 77
2020-03-23 09:00:00 11.6 14 Nordeste 24 Nordeste 0 994.2 1.4 84
2020-03-23 08:00:00 10.4 7 Nordeste 11 Nordeste 0 993.9 1.3 87
2020-03-23 07:00:00 8.7 2 Este 8 Nordeste 0 993.3 0.7 92
2020-03-23 06:00:00 9.3 6 Nordeste 10 Norte 0 992.8 0.3 92
2020-03-23 05:00:00 9.7 6 Nordeste 10 Norte 0 992.6 0 91
2020-03-23 04:00:00 9.3 6 Nordeste 12 Nordeste 0 992.6 0.1 92
2020-03-23 03:00:00 9.4 8 Nordeste 11 Norte 0 992.5 -0.3 89
2020-03-23 02:00:00 9.5 5 Nordeste 9 Nordeste 0 992.6 0 88
2020-03-23 01:00:00 10 5 Norte 11 Nordeste 0 992.5 0.4 88
2020-03-23 00:00:00 10.5 8 Nordeste 13 Nordeste 0 992.8 1.4 84
2020-03-22 23:00:00 11.7 7 Nordeste 21 Nordeste 0 992.6 1.9 78
2020-03-22 22:00:00 12.7 14 Este 24 Este 0 992.1 2 76
2020-03-22 21:00:00 13.2 11 Este 20 Este 0 991.4 2.1 73
2020-03-22 20:00:00 13.3 4 Nordeste 6 Oeste 0 990.7 1.8 73
2020-03-22 19:00:00 14.4 4 Sudoeste 14 Sudoeste 0 990.1 1.4 68
2020-03-22 18:00:00 15.8 6 Sudoeste 17 Sur 0 989.3 0.7 61
2020-03-22 17:00:00 16.2 10 Sudoeste 20 Sudoeste 0 988.9 0 60
2020-03-22 16:00:00 17.1 11 Sur 27 Sudoeste 0 988.7 -0.8 61
2020-03-22 15:00:00 17.3 15 Sudeste 30 Sudeste 0 988.6 -1.2 54
2020-03-22 14:00:00 17.9 12 Este 21 Nordeste 0 988.9 -0.9 48
2020-03-22 13:00:00 16.4 10 Este 22 Sudeste 0 989.5 -0.1 55
2020-03-22 12:00:00 16.7 8 Este 16 Nordeste 0 989.8 0.4 55
2020-03-22 11:00:00 15 6 Nordeste 10 Nordeste 0 989.8 0.9 65
2020-03-22 10:00:00 11.9 5 Nordeste 10 Norte 0 989.6 1 79
2020-03-22 09:00:00 9.3 4 Sudeste 12 Nordeste 0 989.4 1 85
2020-03-22 08:00:00 6.9 6 Nordeste 12 Nordeste 0 988.9 0.6 92
2020-03-22 07:00:00 6.3 5 Nordeste 11 Nordeste 0 988.6 0.1 92
2020-03-22 06:00:00 6.6 5 Nordeste 11 Nordeste 0 988.4 -0.3 92
2020-03-22 05:00:00 7.3 8 Nordeste 11 Nordeste 0 988.3 -0.8 91
2020-03-22 04:00:00 7.6 7 Nordeste 9 Nordeste 0 988.5 -0.9 90
2020-03-22 03:00:00 8.4 6 Nordeste 8 Nordeste 0 988.7 -0.9 88
2020-03-22 02:00:00 9.5 3 Norte 7 Nordeste 0 989.1 -0.6 83
2020-03-22 01:00:00 9.9 3 Nordeste 8 Norte 0 989.4 0 83
2020-03-22 00:00:00 9.9 5 Norte 10 Norte 0 989.6 0.5 82
2020-03-21 23:00:00 9.6 5 Norte 8 Nordeste 0 989.7 1.4 82
2020-03-21 22:00:00 10.3 0 Calma 7 Oeste 0 989.4 1.9 79
2020-03-21 21:00:00 11.9 5 Sudoeste 12 Sur 0 989.1 2 71
2020-03-21 20:00:00 13.1 8 Sur 21 Sur 0 988.3 1.1 66
2020-03-21 19:00:00 15.3 10 Sudoeste 15 Sudoeste 0 987.5 -0.3 57
2020-03-21 18:00:00 17.7 10 Oeste 14 Oeste 0 987.1 -1.3 44
2020-03-21 17:00:00 18.6 6 Oeste 12 Este 0 987.2 -2.1 40
2020-03-21 16:00:00 18.4 6 Sur 13 Nordeste 0 987.8 -2.4 43
2020-03-21 15:00:00 17.8 5 Norte 17 Nordeste 0 988.4 -2.6 42
2020-03-21 14:00:00 16.8 11 Este 19 Este 0 989.3 -2.2 47
2020-03-21 13:00:00 15.7 9 Nordeste 20 Este 0 990.2 -1.7 44
2020-03-21 12:00:00 14.8 7 Este 17 Este 0 991 -1.2 54
2020-03-21 11:00:00 12.7 6 Nordeste 15 Nordeste 0 991.5 -0.7 66
2020-03-21 10:00:00 10.2 9 Nordeste 17 Nordeste 0 991.9 -0.2 72
2020-03-21 09:00:00 7.6 5 Nordeste 9 Nordeste 0 992.2 0.1 81
2020-03-21 08:00:00 5.3 4 Norte 7 Nordeste 0 992.2 -0.1 89
2020-03-21 07:00:00 4.4 4 Nordeste 10 Nordeste 0 992.1 -0.4 91
2020-03-21 06:00:00 4.8 7 Nordeste 14 Nordeste 0 992.1 -0.9 90
2020-03-21 05:00:00 5.1 11 Nordeste 16 Nordeste 0 992.3 -0.9 90
2020-03-21 04:00:00 5.7 10 Nordeste 16 Nordeste 0 992.5 -1.2 88
2020-03-21 03:00:00 6 8 Nordeste 13 Nordeste 0 993 -1.1 89
2020-03-21 02:00:00 6.9 8 Nordeste 11 Nordeste 0 993.2 -1.1 88
2020-03-21 01:00:00 7.8 6 Nordeste 10 Nordeste 0 993.7 -0.7 86
2020-03-21 00:00:00 8.7 6 Nordeste 13 Nordeste 0 994.1 -0.2 84
2020-03-20 23:00:00 9.3 8 Nordeste 12 Nordeste 0 994.3 0.2 80
2020-03-20 22:00:00 10.2 8 Nordeste 12 Nordeste 0 994.4 0.6 76
2020-03-20 21:00:00 11.4 2 Norte 7 Oeste 0 994.3 0.8 73
2020-03-20 20:00:00 13 4 Sudoeste 17 Sur 0 994.1 0.6 66
2020-03-20 19:00:00 15.1 6 Sur 21 Este 0 993.8 0 56
2020-03-20 18:00:00 16.7 11 Sudeste 23 Sudeste 0 993.5 -0.6 49
2020-03-20 17:00:00 17.5 12 Este 25 Sudeste 0 993.5 -1.2 46
2020-03-20 16:00:00 18 10 Este 22 Sudeste 0 993.8 -1.7 43
2020-03-20 15:00:00 18.2 8 Sudeste 22 Sudeste 0 994.1 -2.1 40
2020-03-20 14:00:00 17.1 9 Nordeste 19 Este 0 994.7 -1.9 53
2020-03-20 13:00:00 16.2 6 Nordeste 16 Nordeste 0 995.5 -1.4 55
2020-03-20 12:00:00 14.8 5 Este 15 Este 0 996.2 -0.7 61
2020-03-20 11:00:00 13.1 7 Nordeste 14 Nordeste 0 996.6 -0.1 71
2020-03-20 10:00:00 10.6 9 Nordeste 15 Nordeste 0 996.9 0.5 81
2020-03-20 09:00:00 7.7 8 Nordeste 14 Nordeste 0 996.9 0.7 85
2020-03-20 08:00:00 5.9 6 Nordeste 11 Nordeste 0 996.7 0.4 90
2020-03-20 07:00:00 5.1 7 Nordeste 14 Nordeste 0 996.4 -0.1 91
2020-03-20 06:00:00 5.3 8 Nordeste 13 Nordeste 0 996.2 -0.4 91
2020-03-20 05:00:00 5.6 5 Norte 8 Norte 0 996.3 -0.6 90
2020-03-20 04:00:00 5.9 4 Nordeste 10 Nordeste 0 996.5 -0.4 90
2020-03-20 03:00:00 6.5 7 Norte 12 Norte 0 996.6 -0.8 89
2020-03-20 02:00:00 7.6 6 Norte 10 Nordeste 0 996.9 -0.6 86
2020-03-20 01:00:00 8.6 8 Nordeste 10 Nordeste 0 996.9 -0.4 85
2020-03-20 00:00:00 8.7 4 Nordeste 6 Nordeste 0 997.4 0.2 87
2020-03-19 23:00:00 9.7 4 Noroeste 7 Oeste 0 997.5 0.7 80
2020-03-19 22:00:00 11.8 4 Este 24 Este 0 997.3 0.9 71
2020-03-19 21:00:00 13 13 Este 25 Este 0 997.2 0.9 66
2020-03-19 20:00:00 13.5 17 Este 26 Este 0 996.8 0.3 62
2020-03-19 19:00:00 14.9 13 Este 20 Este 0 996.4 -0.5 60
2020-03-19 18:00:00 16.6 4 Sur 14 Sudoeste 0 996.3 -1 57
2020-03-19 17:00:00 17.3 10 Sudoeste 20 Sudoeste 0 996.5 -1.5 56
2020-03-19 16:00:00 17.6 12 Sudoeste 21 Sur 0 996.9 -1.9 60
2020-03-19 15:00:00 18.4 10 Sudoeste 17 Sudoeste 0 997.3 -2.1 60
2020-03-19 14:00:00 18.5 7 Sudoeste 16 Sudoeste 0 998 -2 63
2020-03-19 13:00:00 17.6 8 Sudoeste 18 Sur 0 998.8 -1.4 66
2020-03-19 12:00:00 16.7 4 Sur 9 Nordeste 0 999.4 -0.7 69
2020-03-19 11:00:00 14.2 2 Oeste 13 Este 0 1000 0 77
2020-03-19 10:00:00 11.8 8 Nordeste 13 Nordeste 0 1000.2 0.3 82
2020-03-19 09:00:00 9.1 9 Nordeste 16 Nordeste 0 1000.1 0.1 91
2020-03-19 08:00:00 6.9 6 Nordeste 12 Nordeste 0 1000 0 97
2020-03-19 07:00:00 6.4 6 Nordeste 9 Nordeste 0 999.9 -0.2 96
2020-03-19 06:00:00 6.8 5 Nordeste 10 Nordeste 0 1000 -0.6 97
2020-03-19 05:00:00 7.2 8 Nordeste 12 Nordeste 0 1000 -1 97
2020-03-19 04:00:00 7.2 8 Nordeste 11 Nordeste 0 1000.1 -1.2 98
2020-03-19 03:00:00 7.5 4 Nordeste 7 Norte 0 1000.6 -0.9 96
2020-03-19 02:00:00 8.4 6 Nordeste 8 Este 0 1001 -0.6 96
2020-03-19 01:00:00 8.9 3 Nordeste 4 Nordeste 0 1001.3 -0.4 94
2020-03-19 00:00:00 9.5 0 Calma 3 Sudoeste 0 1001.5 0 93
2020-03-18 23:00:00 10.5 2 Oeste 6 Sur 0 1001.6 0.2 92
2020-03-18 22:00:00 11.3 0 Calma 3 Nordeste 0 1001.7 0.5 90
2020-03-18 21:00:00 12.5 4 Noroeste 7 Noroeste 0 1001.5 0.4 86
2020-03-18 20:00:00 14 4 Noroeste 7 Noroeste 0 1001.4 0.2 81
2020-03-18 19:00:00 15.5 4 Noroeste 7 Oeste 0 1001.2 -0.5 73
2020-03-18 18:00:00 16.6 5 Oeste 9 Oeste 0 1001.1 -1.2 68
2020-03-18 17:00:00 17 3 Oeste 7 Sudoeste 0 1001.2 -1.8 65
2020-03-18 16:00:00 16.8 4 Oeste 8 Norte 0 1001.7 -2.1 67
2020-03-18 15:00:00 16.3 3 Oeste 10 Sudoeste 0 1002.3 -2.1 69
2020-03-18 14:00:00 15.7 4 Sur 8 Sudoeste 0 1003 -1.7 69
2020-03-18 13:00:00 15.1 4 Sudeste 8 Sur 0 1003.8 -1.2 77
2020-03-18 12:00:00 14 4 Sudoeste 8 Sudoeste 0 1004.4 -0.2 80
2020-03-18 11:00:00 12.1 3 Sudoeste 6 Sur 0 1004.7 0.5 86
2020-03-18 10:00:00 10.2 3 Sudoeste 5 Sur 0 1005 0.8 92
2020-03-18 09:00:00 9 3 Sur 6 Sur 0 1004.6 0.3 95
2020-03-18 08:00:00 8.2 2 Sudoeste 5 Este 0 1004.2 -0.2 94
2020-03-18 07:00:00 8.5 4 Nordeste 7 Nordeste 0 1004.2 -0.2 94
2020-03-18 06:00:00 8.9 4 Nordeste 9 Nordeste 0 1004.3 -0.4 93
2020-03-18 05:00:00 9.3 6 Nordeste 11 Nordeste 0 1004.4 -0.6 92
2020-03-18 04:00:00 10 6 Nordeste 9 Nordeste 0 1004.4 -0.8 93
2020-03-18 03:00:00 10.6 4 Nordeste 8 Nordeste 0 1004.7 -0.8 91
2020-03-18 02:00:00 11.3 4 Nordeste 5 Nordeste 0 1005 -0.7 89
2020-03-18 01:00:00 11.4 3 Este 8 Nordeste 0 1005.2 -0.4 88
2020-03-18 00:00:00 11.6 5 Norte 12 Nordeste 0 1005.5 0.3 88
2020-03-17 23:00:00 11.8 3 Norte 8 Norte 0 1005.7 1.1 86
2020-03-17 22:00:00 12.5 7 Norte 9 Nordeste 0 1005.6 1.5 83
2020-03-17 21:00:00 13.2 6 Nordeste 10 Nordeste 0 1005.2 1.2 80
2020-03-17 20:00:00 14.7 6 Este 13 Este 0 1004.6 0.8 73
2020-03-17 19:00:00 15.9 8 Este 21 Sudeste 0 1004.1 0.4 66
2020-03-17 18:00:00 16.6 10 Este 18 Este 0 1004 0.2 65
2020-03-17 17:00:00 16.7 11 Este 26 Este 0 1003.8 -0.2 64
2020-03-17 16:00:00 17.1 15 Este 25 Este 0 1003.7 -0.6 65
2020-03-17 15:00:00 17.2 13 Este 24 Este 0 1003.8 -0.2 69
2020-03-17 14:00:00 15.8 12 Este 20 Este 0 1004 0.3 73
2020-03-17 13:00:00 15.1 10 Nordeste 19 Nordeste 0 1004.3 1.3 77
2020-03-17 12:00:00 14.2 9 Nordeste 16 Este 0 1004 1.8 83
2020-03-17 11:00:00 12.4 5 Nordeste 10 Nordeste 0.6 1003.7 2.3 89
2020-03-17 10:00:00 11.6 6 Nordeste 21 Nordeste 0.4 1003 2.3 89
2020-03-17 09:00:00 11.4 12 Nordeste 24 Nordeste 0.4 1002.2 2.2 85
2020-03-17 08:00:00 11.6 11 Nordeste 30 Nordeste 1.6 1001.4 2.4 82
2020-03-17 07:00:00 12.6 17 Nordeste 32 Este 0.2 1000.7 2 75
2020-03-17 06:00:00 12.7 18 Nordeste 34 Este 0 1000 1 68
2020-03-17 05:00:00 12.5 19 Nordeste 33 Nordeste 0 999 0.6 71
2020-03-17 04:00:00 12.4 20 Nordeste 39 Nordeste 0 998.7 0 75
2020-03-17 03:00:00 12.6 16 Nordeste 41 Nordeste 0 999 0.8 77
2020-03-17 02:00:00 12.6 26 Nordeste 45 Este 0.2 998.4 0.8 79
2020-03-17 01:00:00 12.9 22 Nordeste 43 Este 0 998.7 1.9 77
2020-03-17 00:00:00 12.7 22 Nordeste 46 Nordeste 0 998.2 2.6 80
2020-03-16 23:00:00 12.4 23 Nordeste 39 Este 0 997.6 3 80
2020-03-16 22:00:00 11.9 16 Nordeste 33 Este 0 996.8 3.1 84
2020-03-16 21:00:00 11.6 19 Nordeste 39 Nordeste 0.6 995.6 2.8 88
2020-03-16 20:00:00 11.9 22 Nordeste 49 Nordeste 0 994.6 2.1 84
2020-03-16 19:00:00 12.5 22 Nordeste 46 Nordeste 0 993.7 1.6 82
2020-03-16 18:00:00 13.1 23 Nordeste 46 Nordeste 0 992.8 1.4 79
2020-03-16 17:00:00 12.2 17 Este 37 Nordeste 0 992.5 1.4 83
2020-03-16 16:00:00 11.5 17 Nordeste 44 Nordeste 2.4 992.1 0.9 90
2020-03-16 15:00:00 12 21 Nordeste 46 Nordeste 0.2 991.4 -0.1 84
2020-03-16 14:00:00 12.6 24 Nordeste 45 Nordeste 0 991.1 -0.5 79
2020-03-16 13:00:00 11.2 19 Nordeste 36 Nordeste 0 991.2 0 87
2020-03-16 12:00:00 10.3 18 Nordeste 32 Nordeste 0.6 991.5 1.3 91
2020-03-16 11:00:00 10.7 16 Nordeste 31 Este 1.4 991.6 1.9 89
2020-03-16 10:00:00 10.4 12 Nordeste 21 Nordeste 1.2 991.2 1.8 92
2020-03-16 09:00:00 10.8 13 Nordeste 28 Este 0.4 990.2 1.2 90
2020-03-16 08:00:00 11.2 16 Nordeste 29 Nordeste 0.6 989.7 0.5 92
2020-03-16 07:00:00 11.2 12 Nordeste 22 Este 1.2 989.4 -0.1 93
2020-03-16 06:00:00 11.3 10 Nordeste 19 Nordeste 0.4 989 -1.2 92
2020-03-16 05:00:00 11.1 9 Nordeste 18 Nordeste 0 989.2 -1.2 93
2020-03-16 04:00:00 11.1 8 Nordeste 19 Este 0.2 989.5 -1.1 93
2020-03-16 03:00:00 11.6 12 Este 16 Este 0.4 990.2 -1.1 90
2020-03-16 02:00:00 11.4 8 Nordeste 16 Nordeste 1.4 990.4 -0.6 94
2020-03-16 01:00:00 11.6 8 Nordeste 15 Este 0.8 990.6 -0.4 94
2020-03-16 00:00:00 12 6 Nordeste 23 Este 3.8 991.3 0.8 92
2020-03-15 23:00:00 13.3 13 Este 24 Este 0.2 991 0.8 78
2020-03-15 22:00:00 13.4 7 Este 15 Nordeste 0 991 1 74
2020-03-15 21:00:00 13 5 Nordeste 18 Este 0 990.5 0.6 73
2020-03-15 20:00:00 14.1 8 Este 21 Sur 0 990.2 0.6 67
2020-03-15 19:00:00 15.1 5 Sur 27 Sur 0 990 0.3 63
2020-03-15 18:00:00 16.3 9 Sur 30 Sur 0 989.9 -0.5 60
2020-03-15 17:00:00 17.6 20 Sur 36 Sur 0 989.6 -2.2 57
2020-03-15 16:00:00 19.7 18 Sur 35 Sur 0 989.7 -3.1 52
2020-03-15 15:00:00 19.1 12 Sur 26 Sur 0 990.4 -3.4 53
2020-03-15 14:00:00 18.7 9 Este 19 Sudeste 0 991.8 -2.7 53
2020-03-15 13:00:00 18 9 Este 17 Este 0 992.8 -2.2 53
2020-03-15 12:00:00 16.1 8 Norte 14 Norte 0 993.8 -1.2 59
2020-03-15 11:00:00 13.9 7 Este 12 Nordeste 0 994.5 -0.3 68
2020-03-15 10:00:00 10.9 7 Nordeste 12 Este 0 995 0.3 80
2020-03-15 09:00:00 7.9 5 Nordeste 12 Nordeste 0 995 0.2 88
2020-03-15 08:00:00 5.8 5 Nordeste 11 Norte 0 994.8 -0.2 94
2020-03-15 07:00:00 5.4 5 Nordeste 10 Nordeste 0 994.7 -0.5 93
2020-03-15 06:00:00 6.1 6 Nordeste 10 Nordeste 0 994.8 -1 93
2020-03-15 05:00:00 6.5 8 Nordeste 13 Nordeste 0 995 -1.1 92
2020-03-15 04:00:00 6.8 7 Nordeste 10 Nordeste 0 995.2 -0.9 93
2020-03-15 03:00:00 7.5 5 Nordeste 13 Nordeste 0 995.8 -0.4 91
2020-03-15 02:00:00 8.1 8 Nordeste 12 Nordeste 0 996.1 -0.2 89
2020-03-15 01:00:00 8.6 6 Norte 15 Nordeste 0 996.1 0 87
2020-03-15 00:00:00 9 8 Norte 14 Nordeste 0 996.2 0.4 85
2020-03-14 23:00:00 10.2 8 Nordeste 12 Nordeste 0 996.3 0.8 80
2020-03-14 22:00:00 11.2 8 Norte 12 Norte 0 996.1 0.8 76
2020-03-14 21:00:00 12.5 6 Nordeste 11 Nordeste 0 995.8 0.9 69
2020-03-14 20:00:00 14.4 6 Nordeste 11 Nordeste 0 995.5 0.5 60
2020-03-14 19:00:00 16.6 3 Nordeste 6 Nordeste 0 995.3 -0.1 54
2020-03-14 18:00:00 18.5 3 Oeste 11 Sur 0 994.9 -1 47
2020-03-14 17:00:00 18.5 3 Sudoeste 13 Sudoeste 0 995 -1.8 46
2020-03-14 16:00:00 18.1 5 Sudoeste 15 Sudoeste 0 995.4 -2.1 47
2020-03-14 15:00:00 17.4 6 Sur 17 Sudoeste 0 995.9 -2.1 51
2020-03-14 14:00:00 16 6 Sudoeste 15 Sudoeste 0 996.8 -1.4 54
2020-03-14 13:00:00 15.1 8 Oeste 17 Sudoeste 0 997.5 -0.7 56
2020-03-14 12:00:00 13.6 8 Sudoeste 22 Sudoeste 0 998 0.2 62
2020-03-14 11:00:00 12.2 12 Sudoeste 23 Sudoeste 0 998.2 1.2 66
2020-03-14 10:00:00 10.3 9 Sudoeste 16 Sudoeste 0 998.2 1.8 73
2020-03-14 09:00:00 8.4 9 Sudoeste 14 Sudoeste 0 997.8 1.8 81
2020-03-14 08:00:00 7.1 5 Sudoeste 12 Sudoeste 0 997 1.5 87
2020-03-14 07:00:00 7.2 5 Sudoeste 11 Sudoeste 0 996.4 0.9 87
2020-03-14 06:00:00 7.4 7 Sudoeste 10 Sudoeste 0 996 0.6 89
2020-03-14 05:00:00 8.5 8 Sudoeste 14 Sudoeste 0 995.5 -0.5 86
2020-03-14 04:00:00 9.8 10 Sudoeste 21 Sudoeste 0 995.5 -0.2 84
2020-03-14 03:00:00 10 10 Sudoeste 21 Oeste 0 995.4 -0.3 81
2020-03-14 02:00:00 10.2 8 Oeste 15 Sudoeste 0 996 0.5 82
2020-03-14 01:00:00 11.1 9 Oeste 14 Oeste 0 995.7 0.4 81
2020-03-14 00:00:00 11.8 7 Oeste 12 Oeste 0 995.7 0.5 84
2020-03-13 23:00:00 13.2 6 Sudoeste 7 Sudoeste 0 995.5 0.6 80
2020-03-13 22:00:00 14.1 6 Oeste 8 Oeste 0 995.3 0.8 77
2020-03-13 21:00:00 14.3 3 Sudoeste 5 Sur 0 995.2 1 75
2020-03-13 20:00:00 15.2 3 Nordeste 9 Norte 0 994.9 0.6 71
2020-03-13 19:00:00 16.3 5 Norte 11 Nordeste 0 994.5 -0.4 67
2020-03-13 18:00:00 18.2 4 Nordeste 11 Noroeste 0 994.2 -1.3 61
2020-03-13 17:00:00 18.8 6 Noroeste 12 Oeste 0 994.3 -2 55
2020-03-13 16:00:00 18.5 7 Sudoeste 15 Oeste 0 994.9 -2.1 56
2020-03-13 15:00:00 18.5 8 Noroeste 27 Oeste 0 995.5 -1.9 58
2020-03-13 14:00:00 17.6 7 Oeste 16 Oeste 0 996.3 -1.2 60
2020-03-13 13:00:00 16.5 6 Noroeste 10 Norte 0 997 -0.5 65
2020-03-13 12:00:00 15 6 Sudoeste 13 Sudeste 0 997.4 0.2 69
2020-03-13 11:00:00 15 8 Sudoeste 13 Sur 0 997.5 1 71
2020-03-13 10:00:00 13.5 5 Sudoeste 10 Sudoeste 0 997.5 1.6 74
2020-03-13 09:00:00 11.5 0 Calma 5 Sur 0 997.2 1.6 84
2020-03-13 08:00:00 10.1 2 Sur 5 Sur 0 996.5 1.2 88
2020-03-13 07:00:00 9.6 3 Sur 9 Sur 0 995.9 0.8 87
2020-03-13 06:00:00 10.2 6 Sur 10 Sur 0 995.6 0.5 86
2020-03-13 05:00:00 10.9 8 Sudoeste 13 Sur 0 995.3 0 85
2020-03-13 04:00:00 11.7 9 Sur 14 Sur 0 995.1 -0.2 82
2020-03-13 03:00:00 12.7 5 Sudoeste 10 Sur 0 995.1 0.3 78
2020-03-13 02:00:00 14.1 7 Oeste 12 Oeste 0 995.3 0.3 71
2020-03-13 01:00:00 14.9 6 Sur 16 Sudoeste 0 995.3 1.2 67
2020-03-13 00:00:00 16.2 6 Sudeste 13 Nordeste 0 994.8 1.8 61
2020-03-12 23:00:00 16.7 7 Sudoeste 23 Sudoeste 0 995 2.4 58
2020-03-12 22:00:00 17.6 10 Oeste 22 Oeste 0 994.1 1.8 56
2020-03-12 21:00:00 18.3 9 Oeste 15 Oeste 0 993 1.1 56
2020-03-12 20:00:00 19.7 12 Oeste 15 Oeste 0 992.6 0.4 55
2020-03-12 19:00:00 23.1 3 Oeste 4 Sudoeste 0 992.3 -0.6 46
2020-03-12 18:00:00 25 3 Nordeste 8 Nordeste 0 991.9 -1.8 36
2020-03-12 17:00:00 25.9 5 Sudeste 8 Nordeste 0 992.2 -2.7 35
2020-03-12 16:00:00 26 3 Norte 8 Norte 0 992.9 -3.2 35
2020-03-12 15:00:00 24.9 4 Noroeste 9 Este 0 993.7 -3.1 36
2020-03-12 14:00:00 24.3 3 Sur 8 Este 0 994.9 -2.3 39
2020-03-12 13:00:00 22.3 3 Sudoeste 9 Sur 0 996.1 -1.2 44
2020-03-12 12:00:00 19.6 4 Sudeste 12 Este 0 996.8 -0.8 51
2020-03-12 11:00:00 16.9 5 Este 11 Nordeste 0 997.2 0.1 61
2020-03-12 10:00:00 13.2 6 Norte 13 Nordeste 0 997.3 -0.1 74
2020-03-12 09:00:00 9.2 6 Norte 13 Norte 0 997.6 0.6 86
2020-03-12 08:00:00 8 8 Nordeste 12 Nordeste 0 997.1 0.2 90
2020-03-12 07:00:00 7.1 4 Nordeste 5 Norte 0 997.4 0.3 92
2020-03-12 06:00:00 7.8 3 Nordeste 9 Nordeste 0 997 -0.5 88
2020-03-12 05:00:00 8.5 4 Nordeste 8 Nordeste 0 996.9 -0.7 87
2020-03-12 04:00:00 9.5 4 Nordeste 14 Norte 0 997.1 -0.8 83
2020-03-12 03:00:00 10.2 6 Norte 10 Norte 0 997.5 -0.7 81
2020-03-12 02:00:00 11 5 Nordeste 15 Nordeste 0 997.6 -0.4 79
2020-03-12 01:00:00 12.4 6 Nordeste 17 Nordeste 0 997.9 -0.1 72
2020-03-12 00:00:00 12.9 9 Nordeste 14 Nordeste 0 998.2 0.5 72
2020-03-11 23:00:00 13.5 8 Nordeste 13 Nordeste 0 998 0.4 70
2020-03-11 22:00:00 14.5 8 Nordeste 12 Nordeste 0 998 0.7 67
2020-03-11 21:00:00 15.5 6 Nordeste 11 Nordeste 0 997.7 0.6 64
2020-03-11 20:00:00 17.1 8 Nordeste 12 Nordeste 0 997.6 0.4 59
2020-03-11 19:00:00 19.2 8 Nordeste 12 Nordeste 0 997.3 -0.3 54
2020-03-11 18:00:00 22.1 7 Nordeste 12 Nordeste 0 997.1 -1.1 46
2020-03-11 17:00:00 23.6 4 Sur 12 Sur 0 997.2 -1.9 39
2020-03-11 16:00:00 23.1 6 Oeste 12 Sudoeste 0 997.6 -2.3 41
2020-03-11 15:00:00 21.8 5 Oeste 15 Noroeste 0 998.2 -2.5 43
2020-03-11 14:00:00 20.3 8 Oeste 16 Noroeste 0 999.1 -1.8 44
2020-03-11 13:00:00 18.4 10 Oeste 21 Oeste 0 999.9 -0.9 51
2020-03-11 12:00:00 16.7 5 Sudoeste 11 Sur 0 1000.7 0.2 56
2020-03-11 11:00:00 13.7 3 Oeste 8 Oeste 0 1000.9 0.8 65
2020-03-11 10:00:00 10.6 4 Norte 11 Este 0 1000.8 1.3 76
2020-03-11 09:00:00 8.1 5 Nordeste 12 Nordeste 0 1000.5 1.4 83
2020-03-11 08:00:00 5.1 5 Nordeste 9 Nordeste 0 1000.1 0.9 92
2020-03-11 07:00:00 4.5 7 Nordeste 12 Nordeste 0 999.5 0.6 92
2020-03-11 06:00:00 4.8 8 Nordeste 12 Nordeste 0 999.1 -0.2 91
2020-03-11 05:00:00 5.1 3 Nordeste 7 Nordeste 0 999.2 -0.2 91
2020-03-11 04:00:00 5.8 5 Norte 8 Norte 0 998.9 -0.6 88
2020-03-11 03:00:00 6.9 5 Nordeste 10 Nordeste 0 999.3 -0.2 88
2020-03-11 02:00:00 7.6 5 Nordeste 10 Nordeste 0 999.4 -0.2 86
2020-03-11 01:00:00 8.6 6 Nordeste 9 Nordeste 0 999.5 0.2 82
2020-03-11 00:00:00 9.8 4 Nordeste 11 Nordeste 0 999.5 0.5 78
2020-03-10 23:00:00 10.6 7 Nordeste 11 Nordeste 0 999.6 0.7 75
2020-03-10 22:00:00 11.3 8 Nordeste 15 Norte 0 999.3 0.7 71
2020-03-10 21:00:00 12.1 7 Norte 15 Nordeste 0 999 0.5 69
2020-03-10 20:00:00 13.7 8 Nordeste 13 Nordeste 0 998.9 0.3 63
2020-03-10 19:00:00 16.2 7 Nordeste 12 Nordeste 0 998.6 -0.2 52
2020-03-10 18:00:00 18.3 5 Nordeste 8 Nordeste 0 998.5 -0.7 44
2020-03-10 17:00:00 18.5 3 Nordeste 10 Sudoeste 0 998.6 -1.2 41
2020-03-10 16:00:00 18.3 7 Sudoeste 17 Sudoeste 0 998.8 -2 42
2020-03-10 15:00:00 17.2 13 Sudoeste 25 Oeste 0 999.2 -2.2 45
2020-03-10 14:00:00 16.2 13 Oeste 23 Oeste 0 999.8 -1.8 48
2020-03-10 13:00:00 14.3 10 Oeste 26 Oeste 0 1000.8 -0.9 55
2020-03-10 12:00:00 13.4 12 Sudoeste 24 Sudoeste 0 1001.4 0.3 56
2020-03-10 11:00:00 11.5 9 Sudoeste 16 Oeste 0 1001.6 1 65
2020-03-10 10:00:00 7.1 8 Norte 12 Norte 0 1001.7 1.5 79
2020-03-10 09:00:00 5.1 6 Nordeste 10 Nordeste 0 1001.1 1 81
2020-03-10 08:00:00 4.5 6 Nordeste 9 Nordeste 0 1000.6 0.8 83
2020-03-10 07:00:00 4 6 Nordeste 11 Norte 0 1000.2 0.6 84
2020-03-10 06:00:00 4.7 7 Norte 12 Norte 0 1000.1 0.5 83
2020-03-10 05:00:00 5.3 2 Noroeste 10 Sur 0 999.8 0.3 83
2020-03-10 04:00:00 6 5 Sur 13 Sur 0 999.6 0.5 77
2020-03-10 03:00:00 7 8 Sudoeste 21 Sudoeste 0 999.6 0.7 70
2020-03-10 02:00:00 7.7 13 Sur 23 Sudoeste 0 999.5 0.7 67
2020-03-10 01:00:00 7.7 8 Sudoeste 22 Sur 0 999.1 1.4 69
2020-03-10 00:00:00 8.2 8 Sudoeste 32 Oeste 0 998.9 1.8 64
2020-03-09 23:00:00 9.3 12 Sudoeste 55 Noroeste 0 998.8 2.3 58
2020-03-09 22:00:00 10.5 28 Oeste 47 Oeste 0 997.7 1.7 54
2020-03-09 21:00:00 10.9 28 Oeste 49 Noroeste 0 997.1 1.9 57
2020-03-09 20:00:00 12 35 Noroeste 67 Noroeste 0 996.5 1.6 46
2020-03-09 19:00:00 13.1 34 Oeste 60 Oeste 0 996 1 43
2020-03-09 18:00:00 15.1 33 Oeste 67 Oeste 0 995.2 -0.1 38
2020-03-09 17:00:00 16.4 37 Oeste 63 Noroeste 0 994.9 -1.1 36
2020-03-09 16:00:00 16.9 34 Oeste 61 Noroeste 0 995 -2.1 36
2020-03-09 15:00:00 16.6 36 Oeste 67 Noroeste 0 995.3 -2.3 40
2020-03-09 14:00:00 16 41 Oeste 68 Oeste 0 996 -1.9 45
2020-03-09 13:00:00 15.6 39 Oeste 67 Noroeste 0 997.1 -0.4 47
2020-03-09 12:00:00 13.9 41 Oeste 69 Oeste 0 997.6 0 52
2020-03-09 11:00:00 13.3 37 Oeste 65 Oeste 0 997.9 0.7 53
2020-03-09 10:00:00 12.1 37 Oeste 65 Oeste 0 997.5 0.6 56
2020-03-09 09:00:00 11 34 Oeste 58 Noroeste 0 997.6 1.2 59
2020-03-09 08:00:00 10.2 33 Oeste 54 Oeste 0 997.2 1 61
2020-03-09 07:00:00 9.8 22 Oeste 44 Oeste 0 996.9 0.7 63
2020-03-09 06:00:00 10.7 23 Oeste 46 Oeste 0 996.4 -0.3 62
2020-03-09 05:00:00 11.1 26 Oeste 44 Oeste 0 996.2 -0.4 62
2020-03-09 04:00:00 10.8 14 Sudoeste 33 Oeste 0 996.2 -0.5 67
2020-03-09 03:00:00 11.1 19 Oeste 36 Oeste 0 996.7 0.2 68
2020-03-09 02:00:00 10.5 16 Oeste 26 Oeste 0 996.6 -0.1 72
2020-03-09 01:00:00 10.1 13 Oeste 21 Sudoeste 0 996.7 0.1 73
2020-03-09 00:00:00 10 9 Sudoeste 13 Sudoeste 0 996.5 -0.1 69